sensor_id;sensor_type;location;lat;lon;timestamp;temperature;humidity
35363;DHT22;21463;47.480;8.214;2022-08-21T00:00:17;21.70;70.20
35363;DHT22;21463;47.480;8.214;2022-08-21T00:01:22;21.70;70.10
35363;DHT22;21463;47.480;8.214;2022-08-21T00:02:27;21.60;70.10
35363;DHT22;21463;47.480;8.214;2022-08-21T00:03:30;21.70;70.20
35363;DHT22;21463;47.480;8.214;2022-08-21T00:04:32;21.70;70.20
35363;DHT22;21463;47.480;8.214;2022-08-21T00:05:43;21.70;70.20
35363;DHT22;21463;47.480;8.214;2022-08-21T00:06:45;21.60;70.10
35363;DHT22;21463;47.480;8.214;2022-08-21T00:07:48;21.60;70.10
35363;DHT22;21463;47.480;8.214;2022-08-21T00:08:51;21.60;70.10
35363;DHT22;21463;47.480;8.214;2022-08-21T00:09:54;21.60;70.10
35363;DHT22;21463;47.480;8.214;2022-08-21T00:10:56;21.60;70.10
35363;DHT22;21463;47.480;8.214;2022-08-21T00:11:58;21.60;70.10
35363;DHT22;21463;47.480;8.214;2022-08-21T00:13:03;21.70;70.20
35363;DHT22;21463;47.480;8.214;2022-08-21T00:14:08;21.70;70.20
35363;DHT22;21463;47.480;8.214;2022-08-21T00:15:16;21.70;70.20
35363;DHT22;21463;47.480;8.214;2022-08-21T00:16:18;21.60;70.20
35363;DHT22;21463;47.480;8.214;2022-08-21T00:17:21;21.60;70.20
35363;DHT22;21463;47.480;8.214;2022-08-21T00:18:25;21.70;70.20
35363;DHT22;21463;47.480;8.214;2022-08-21T00:19:28;21.60;70.10
35363;DHT22;21463;47.480;8.214;2022-08-21T00:20:30;21.60;70.10
35363;DHT22;21463;47.480;8.214;2022-08-21T00:21:34;21.60;70.20
35363;DHT22;21463;47.480;8.214;2022-08-21T00:22:37;21.60;70.20
35363;DHT22;21463;47.480;8.214;2022-08-21T00:23:39;21.60;70.20
35363;DHT22;21463;47.480;8.214;2022-08-21T00:24:42;21.70;70.20
35363;DHT22;21463;47.480;8.214;2022-08-21T00:25:44;21.60;70.20
35363;DHT22;21463;47.480;8.214;2022-08-21T00:26:47;21.60;70.20
35363;DHT22;21463;47.480;8.214;2022-08-21T00:27:49;21.60;70.20
35363;DHT22;21463;47.480;8.214;2022-08-21T00:28:52;21.60;70.20
35363;DHT22;21463;47.480;8.214;2022-08-21T00:29:56;21.60;70.20
35363;DHT22;21463;47.480;8.214;2022-08-21T00:30:59;21.60;70.20
35363;DHT22;21463;47.480;8.214;2022-08-21T00:32:02;21.60;70.20
35363;DHT22;21463;47.480;8.214;2022-08-21T00:33:06;21.60;70.20
35363;DHT22;21463;47.480;8.214;2022-08-21T00:34:10;21.70;70.20
35363;DHT22;21463;47.480;8.214;2022-08-21T00:35:15;21.70;70.20
35363;DHT22;21463;47.480;8.214;2022-08-21T00:36:18;21.60;70.20
35363;DHT22;21463;47.480;8.214;2022-08-21T00:37:21;21.70;70.20
35363;DHT22;21463;47.480;8.214;2022-08-21T00:38:24;21.70;70.20
35363;DHT22;21463;47.480;8.214;2022-08-21T00:39:26;21.60;70.20
35363;DHT22;21463;47.480;8.214;2022-08-21T00:40:36;21.60;70.20
35363;DHT22;21463;47.480;8.214;2022-08-21T00:41:39;21.70;70.30
35363;DHT22;21463;47.480;8.214;2022-08-21T00:42:42;21.70;70.30
35363;DHT22;21463;47.480;8.214;2022-08-21T00:43:50;21.60;70.20
35363;DHT22;21463;47.480;8.214;2022-08-21T00:44:53;21.60;70.20
35363;DHT22;21463;47.480;8.214;2022-08-21T00:45:57;21.60;70.20
35363;DHT22;21463;47.480;8.214;2022-08-21T00:46:59;21.70;70.20
35363;DHT22;21463;47.480;8.214;2022-08-21T00:48:02;21.60;70.20
35363;DHT22;21463;47.480;8.214;2022-08-21T00:49:05;21.60;70.20
35363;DHT22;21463;47.480;8.214;2022-08-21T00:50:09;21.70;70.30
35363;DHT22;21463;47.480;8.214;2022-08-21T00:51:35;21.60;70.20
35363;DHT22;21463;47.480;8.214;2022-08-21T00:52:39;21.60;70.20
35363;DHT22;21463;47.480;8.214;2022-08-21T00:53:45;21.70;70.20
35363;DHT22;21463;47.480;8.214;2022-08-21T00:54:57;21.60;70.20
35363;DHT22;21463;47.480;8.214;2022-08-21T00:56:00;21.60;70.30
35363;DHT22;21463;47.480;8.214;2022-08-21T00:57:10;21.60;70.20
35363;DHT22;21463;47.480;8.214;2022-08-21T00:58:16;21.60;70.20
35363;DHT22;21463;47.480;8.214;2022-08-21T00:59:20;21.60;70.20
35363;DHT22;21463;47.480;8.214;2022-08-21T01:00:33;21.60;70.20
35363;DHT22;21463;47.480;8.214;2022-08-21T01:01:35;21.60;70.20
35363;DHT22;21463;47.480;8.214;2022-08-21T01:02:38;21.70;70.30
35363;DHT22;21463;47.480;8.214;2022-08-21T01:03:41;21.70;70.30
35363;DHT22;21463;47.480;8.214;2022-08-21T01:04:47;21.60;70.20
35363;DHT22;21463;47.480;8.214;2022-08-21T01:05:50;21.60;70.20
35363;DHT22;21463;47.480;8.214;2022-08-21T01:06:53;21.60;70.20
35363;DHT22;21463;47.480;8.214;2022-08-21T01:07:57;21.60;70.20
35363;DHT22;21463;47.480;8.214;2022-08-21T01:08:59;21.60;70.20
35363;DHT22;21463;47.480;8.214;2022-08-21T01:10:03;21.60;70.20
35363;DHT22;21463;47.480;8.214;2022-08-21T01:11:06;21.60;70.20
35363;DHT22;21463;47.480;8.214;2022-08-21T01:12:09;21.60;70.20
35363;DHT22;21463;47.480;8.214;2022-08-21T01:13:15;21.60;70.20
35363;DHT22;21463;47.480;8.214;2022-08-21T01:14:19;21.60;70.20
35363;DHT22;21463;47.480;8.214;2022-08-21T01:15:24;21.60;70.20
35363;DHT22;21463;47.480;8.214;2022-08-21T01:16:28;21.60;70.20
35363;DHT22;21463;47.480;8.214;2022-08-21T01:17:32;21.60;70.20
35363;DHT22;21463;47.480;8.214;2022-08-21T01:18:35;21.60;70.20
35363;DHT22;21463;47.480;8.214;2022-08-21T01:19:37;21.60;70.30
35363;DHT22;21463;47.480;8.214;2022-08-21T01:20:45;21.60;70.20
35363;DHT22;21463;47.480;8.214;2022-08-21T01:21:52;21.60;70.20
35363;DHT22;21463;47.480;8.214;2022-08-21T01:22:55;21.60;70.20
35363;DHT22;21463;47.480;8.214;2022-08-21T01:23:58;21.60;70.20
35363;DHT22;21463;47.480;8.214;2022-08-21T01:25:04;21.60;70.20
35363;DHT22;21463;47.480;8.214;2022-08-21T01:26:07;21.60;70.20
35363;DHT22;21463;47.480;8.214;2022-08-21T01:27:10;21.60;70.30
35363;DHT22;21463;47.480;8.214;2022-08-21T01:28:14;21.60;70.20
35363;DHT22;21463;47.480;8.214;2022-08-21T01:30:27;21.60;70.30
35363;DHT22;21463;47.480;8.214;2022-08-21T01:31:30;21.60;70.20
35363;DHT22;21463;47.480;8.214;2022-08-21T01:32:35;21.60;70.80
35363;DHT22;21463;47.480;8.214;2022-08-21T01:33:37;21.60;70.30
35363;DHT22;21463;47.480;8.214;2022-08-21T01:34:43;21.60;70.30
35363;DHT22;21463;47.480;8.214;2022-08-21T01:35:45;21.60;70.20
35363;DHT22;21463;47.480;8.214;2022-08-21T01:36:48;21.60;70.30
35363;DHT22;21463;47.480;8.214;2022-08-21T01:37:50;21.60;70.20
35363;DHT22;21463;47.480;8.214;2022-08-21T01:38:52;21.70;70.30
35363;DHT22;21463;47.480;8.214;2022-08-21T01:39:55;21.60;70.30
35363;DHT22;21463;47.480;8.214;2022-08-21T01:40:58;21.60;70.30
35363;DHT22;21463;47.480;8.214;2022-08-21T01:42:00;21.60;70.30
35363;DHT22;21463;47.480;8.214;2022-08-21T01:43:03;21.60;70.30
35363;DHT22;21463;47.480;8.214;2022-08-21T01:44:06;21.60;70.30
35363;DHT22;21463;47.480;8.214;2022-08-21T01:45:09;21.60;70.20
35363;DHT22;21463;47.480;8.214;2022-08-21T01:46:12;21.60;70.30
35363;DHT22;21463;47.480;8.214;2022-08-21T01:47:15;21.60;70.30
35363;DHT22;21463;47.480;8.214;2022-08-21T01:48:19;21.60;70.30
35363;DHT22;21463;47.480;8.214;2022-08-21T01:49:21;21.60;70.30
35363;DHT22;21463;47.480;8.214;2022-08-21T01:50:24;21.60;70.30
35363;DHT22;21463;47.480;8.214;2022-08-21T01:51:26;21.60;70.30
35363;DHT22;21463;47.480;8.214;2022-08-21T01:52:29;21.60;70.30
35363;DHT22;21463;47.480;8.214;2022-08-21T01:53:33;21.60;70.30
35363;DHT22;21463;47.480;8.214;2022-08-21T01:54:38;21.60;70.30
35363;DHT22;21463;47.480;8.214;2022-08-21T01:55:42;21.60;70.30
35363;DHT22;21463;47.480;8.214;2022-08-21T01:56:50;21.60;70.30
35363;DHT22;21463;47.480;8.214;2022-08-21T01:57:52;21.60;70.80
35363;DHT22;21463;47.480;8.214;2022-08-21T01:58:55;21.60;70.30
35363;DHT22;21463;47.480;8.214;2022-08-21T01:59:58;21.60;70.30
35363;DHT22;21463;47.480;8.214;2022-08-21T02:01:01;21.60;70.30
35363;DHT22;21463;47.480;8.214;2022-08-21T02:02:04;21.70;70.30
35363;DHT22;21463;47.480;8.214;2022-08-21T02:03:07;21.60;70.30
35363;DHT22;21463;47.480;8.214;2022-08-21T02:04:10;21.60;70.30
35363;DHT22;21463;47.480;8.214;2022-08-21T02:05:12;21.60;70.30
35363;DHT22;21463;47.480;8.214;2022-08-21T02:06:15;21.60;70.30
35363;DHT22;21463;47.480;8.214;2022-08-21T02:07:20;21.60;70.30
35363;DHT22;21463;47.480;8.214;2022-08-21T02:08:23;21.60;70.30
35363;DHT22;21463;47.480;8.214;2022-08-21T02:09:26;21.60;70.30
35363;DHT22;21463;47.480;8.214;2022-08-21T02:10:31;21.60;70.30
35363;DHT22;21463;47.480;8.214;2022-08-21T02:11:35;21.60;70.30
35363;DHT22;21463;47.480;8.214;2022-08-21T02:12:38;21.60;70.30
35363;DHT22;21463;47.480;8.214;2022-08-21T02:13:40;21.60;70.30
35363;DHT22;21463;47.480;8.214;2022-08-21T02:14:42;21.60;70.30
35363;DHT22;21463;47.480;8.214;2022-08-21T02:15:45;21.60;70.30
35363;DHT22;21463;47.480;8.214;2022-08-21T02:16:47;21.60;70.30
35363;DHT22;21463;47.480;8.214;2022-08-21T02:17:53;21.60;70.30
35363;DHT22;21463;47.480;8.214;2022-08-21T02:18:56;21.60;70.30
35363;DHT22;21463;47.480;8.214;2022-08-21T02:19:58;21.60;70.30
35363;DHT22;21463;47.480;8.214;2022-08-21T02:21:01;21.60;70.30
35363;DHT22;21463;47.480;8.214;2022-08-21T02:22:04;21.60;70.30
35363;DHT22;21463;47.480;8.214;2022-08-21T02:23:08;21.60;70.30
35363;DHT22;21463;47.480;8.214;2022-08-21T02:24:11;21.60;70.30
35363;DHT22;21463;47.480;8.214;2022-08-21T02:25:14;21.60;70.30
35363;DHT22;21463;47.480;8.214;2022-08-21T02:26:16;21.60;70.30
35363;DHT22;21463;47.480;8.214;2022-08-21T02:27:19;21.60;70.30
35363;DHT22;21463;47.480;8.214;2022-08-21T02:28:27;21.60;70.30
35363;DHT22;21463;47.480;8.214;2022-08-21T02:29:33;21.60;70.30
35363;DHT22;21463;47.480;8.214;2022-08-21T02:30:39;21.60;70.80
35363;DHT22;21463;47.480;8.214;2022-08-21T02:31:41;21.60;70.30
35363;DHT22;21463;47.480;8.214;2022-08-21T02:32:44;21.60;70.30
35363;DHT22;21463;47.480;8.214;2022-08-21T02:33:47;21.60;70.30
35363;DHT22;21463;47.480;8.214;2022-08-21T02:34:49;21.60;70.30
35363;DHT22;21463;47.480;8.214;2022-08-21T02:35:53;21.60;70.30
35363;DHT22;21463;47.480;8.214;2022-08-21T02:36:55;21.60;70.30
35363;DHT22;21463;47.480;8.214;2022-08-21T02:38:04;21.60;70.30
35363;DHT22;21463;47.480;8.214;2022-08-21T02:39:07;21.60;70.30
35363;DHT22;21463;47.480;8.214;2022-08-21T02:40:10;21.60;70.30
35363;DHT22;21463;47.480;8.214;2022-08-21T02:41:16;21.60;70.30
35363;DHT22;21463;47.480;8.214;2022-08-21T02:42:19;21.60;70.30
35363;DHT22;21463;47.480;8.214;2022-08-21T02:43:24;21.60;70.30
35363;DHT22;21463;47.480;8.214;2022-08-21T02:44:27;21.60;70.30
35363;DHT22;21463;47.480;8.214;2022-08-21T02:45:36;21.60;70.30
35363;DHT22;21463;47.480;8.214;2022-08-21T02:46:39;21.60;70.30
35363;DHT22;21463;47.480;8.214;2022-08-21T02:47:50;21.60;70.30
35363;DHT22;21463;47.480;8.214;2022-08-21T02:48:52;21.60;70.30
35363;DHT22;21463;47.480;8.214;2022-08-21T02:49:54;21.60;70.30
35363;DHT22;21463;47.480;8.214;2022-08-21T02:51:03;21.60;70.30
35363;DHT22;21463;47.480;8.214;2022-08-21T02:52:06;21.60;70.30
35363;DHT22;21463;47.480;8.214;2022-08-21T02:53:10;21.60;70.30
35363;DHT22;21463;47.480;8.214;2022-08-21T02:54:13;21.60;70.30
35363;DHT22;21463;47.480;8.214;2022-08-21T02:55:15;21.60;70.30
35363;DHT22;21463;47.480;8.214;2022-08-21T02:56:21;21.60;70.30
35363;DHT22;21463;47.480;8.214;2022-08-21T02:57:24;21.60;70.30
35363;DHT22;21463;47.480;8.214;2022-08-21T02:58:30;21.50;70.30
35363;DHT22;21463;47.480;8.214;2022-08-21T02:59:33;21.60;70.30
35363;DHT22;21463;47.480;8.214;2022-08-21T03:00:37;21.60;70.30
35363;DHT22;21463;47.480;8.214;2022-08-21T03:01:39;21.60;70.30
35363;DHT22;21463;47.480;8.214;2022-08-21T03:02:42;21.60;70.40
35363;DHT22;21463;47.480;8.214;2022-08-21T03:03:46;21.60;70.30
35363;DHT22;21463;47.480;8.214;2022-08-21T03:04:51;21.60;70.30
35363;DHT22;21463;47.480;8.214;2022-08-21T03:05:54;21.60;70.30
35363;DHT22;21463;47.480;8.214;2022-08-21T03:06:56;21.60;70.30
35363;DHT22;21463;47.480;8.214;2022-08-21T03:08:01;21.60;70.40
35363;DHT22;21463;47.480;8.214;2022-08-21T03:09:05;21.60;70.30
35363;DHT22;21463;47.480;8.214;2022-08-21T03:10:08;21.60;70.30
35363;DHT22;21463;47.480;8.214;2022-08-21T03:11:11;21.60;70.40
35363;DHT22;21463;47.480;8.214;2022-08-21T03:12:14;21.60;70.30
35363;DHT22;21463;47.480;8.214;2022-08-21T03:13:18;21.60;70.30
35363;DHT22;21463;47.480;8.214;2022-08-21T03:14:22;21.60;70.30
35363;DHT22;21463;47.480;8.214;2022-08-21T03:15:24;21.60;70.30
35363;DHT22;21463;47.480;8.214;2022-08-21T03:16:27;21.60;70.30
35363;DHT22;21463;47.480;8.214;2022-08-21T03:17:36;21.70;70.40
35363;DHT22;21463;47.480;8.214;2022-08-21T03:18:38;21.60;70.30
35363;DHT22;21463;47.480;8.214;2022-08-21T03:19:41;21.50;70.30
35363;DHT22;21463;47.480;8.214;2022-08-21T03:20:44;21.60;70.30
35363;DHT22;21463;47.480;8.214;2022-08-21T03:21:47;21.60;70.30
35363;DHT22;21463;47.480;8.214;2022-08-21T03:22:50;21.60;70.30
35363;DHT22;21463;47.480;8.214;2022-08-21T03:23:54;21.60;70.30
35363;DHT22;21463;47.480;8.214;2022-08-21T03:24:56;21.60;70.40
35363;DHT22;21463;47.480;8.214;2022-08-21T03:25:59;21.50;70.30
35363;DHT22;21463;47.480;8.214;2022-08-21T03:27:02;21.60;70.30
35363;DHT22;21463;47.480;8.214;2022-08-21T03:28:15;21.60;70.30
35363;DHT22;21463;47.480;8.214;2022-08-21T03:29:18;21.60;70.40
35363;DHT22;21463;47.480;8.214;2022-08-21T03:30:24;21.60;70.30
35363;DHT22;21463;47.480;8.214;2022-08-21T03:31:26;21.60;70.30
35363;DHT22;21463;47.480;8.214;2022-08-21T03:32:33;21.60;70.30
35363;DHT22;21463;47.480;8.214;2022-08-21T03:33:36;21.60;70.30
35363;DHT22;21463;47.480;8.214;2022-08-21T03:34:38;21.60;70.30
35363;DHT22;21463;47.480;8.214;2022-08-21T03:35:47;21.60;70.30
35363;DHT22;21463;47.480;8.214;2022-08-21T03:36:50;21.60;70.30
35363;DHT22;21463;47.480;8.214;2022-08-21T03:37:54;21.60;70.30
35363;DHT22;21463;47.480;8.214;2022-08-21T03:38:57;21.60;70.30
35363;DHT22;21463;47.480;8.214;2022-08-21T03:39:59;21.60;70.30
35363;DHT22;21463;47.480;8.214;2022-08-21T03:41:03;21.60;70.30
35363;DHT22;21463;47.480;8.214;2022-08-21T03:42:06;21.60;70.30
35363;DHT22;21463;47.480;8.214;2022-08-21T03:43:08;21.60;70.30
35363;DHT22;21463;47.480;8.214;2022-08-21T03:44:11;21.60;70.30
35363;DHT22;21463;47.480;8.214;2022-08-21T03:45:17;21.60;70.30
35363;DHT22;21463;47.480;8.214;2022-08-21T03:46:20;21.60;70.80
35363;DHT22;21463;47.480;8.214;2022-08-21T03:47:22;21.60;70.30
35363;DHT22;21463;47.480;8.214;2022-08-21T03:48:25;21.50;70.30
35363;DHT22;21463;47.480;8.214;2022-08-21T03:49:27;21.60;70.30
35363;DHT22;21463;47.480;8.214;2022-08-21T03:50:33;21.60;70.30
35363;DHT22;21463;47.480;8.214;2022-08-21T03:51:42;21.60;70.30
35363;DHT22;21463;47.480;8.214;2022-08-21T03:52:47;21.60;70.30
35363;DHT22;21463;47.480;8.214;2022-08-21T03:53:50;21.60;70.80
35363;DHT22;21463;47.480;8.214;2022-08-21T03:54:52;21.50;70.20
35363;DHT22;21463;47.480;8.214;2022-08-21T03:55:54;21.60;70.30
35363;DHT22;21463;47.480;8.214;2022-08-21T03:56:57;21.60;70.30
35363;DHT22;21463;47.480;8.214;2022-08-21T03:58:00;21.60;70.30
35363;DHT22;21463;47.480;8.214;2022-08-21T03:59:18;21.50;70.20
35363;DHT22;21463;47.480;8.214;2022-08-21T04:00:21;21.60;70.30
35363;DHT22;21463;47.480;8.214;2022-08-21T04:01:24;21.60;70.30
35363;DHT22;21463;47.480;8.214;2022-08-21T04:02:26;21.60;70.30
35363;DHT22;21463;47.480;8.214;2022-08-21T04:03:29;21.60;70.30
35363;DHT22;21463;47.480;8.214;2022-08-21T04:04:32;21.50;70.20
35363;DHT22;21463;47.480;8.214;2022-08-21T04:05:34;21.60;70.30
35363;DHT22;21463;47.480;8.214;2022-08-21T04:06:39;21.60;70.30
35363;DHT22;21463;47.480;8.214;2022-08-21T04:07:41;21.60;70.30
35363;DHT22;21463;47.480;8.214;2022-08-21T04:08:43;21.60;70.30
35363;DHT22;21463;47.480;8.214;2022-08-21T04:09:46;21.60;70.30
35363;DHT22;21463;47.480;8.214;2022-08-21T04:10:51;21.60;70.30
35363;DHT22;21463;47.480;8.214;2022-08-21T04:11:54;21.60;70.30
35363;DHT22;21463;47.480;8.214;2022-08-21T04:12:56;21.50;70.20
35363;DHT22;21463;47.480;8.214;2022-08-21T04:13:59;21.60;70.30
35363;DHT22;21463;47.480;8.214;2022-08-21T04:15:02;21.60;70.30
35363;DHT22;21463;47.480;8.214;2022-08-21T04:16:05;21.60;70.30
35363;DHT22;21463;47.480;8.214;2022-08-21T04:17:08;21.60;70.30
35363;DHT22;21463;47.480;8.214;2022-08-21T04:18:10;21.60;70.30
35363;DHT22;21463;47.480;8.214;2022-08-21T04:19:13;21.60;70.30
35363;DHT22;21463;47.480;8.214;2022-08-21T04:20:17;21.60;70.30
35363;DHT22;21463;47.480;8.214;2022-08-21T04:21:19;21.50;70.20
35363;DHT22;21463;47.480;8.214;2022-08-21T04:22:31;21.60;70.30
35363;DHT22;21463;47.480;8.214;2022-08-21T04:23:34;21.50;70.20
35363;DHT22;21463;47.480;8.214;2022-08-21T04:24:36;21.60;70.30
35363;DHT22;21463;47.480;8.214;2022-08-21T04:25:39;21.60;70.30
35363;DHT22;21463;47.480;8.214;2022-08-21T04:26:41;21.60;70.30
35363;DHT22;21463;47.480;8.214;2022-08-21T04:27:44;21.60;70.30
35363;DHT22;21463;47.480;8.214;2022-08-21T04:28:46;21.60;70.30
35363;DHT22;21463;47.480;8.214;2022-08-21T04:29:49;21.60;70.30
35363;DHT22;21463;47.480;8.214;2022-08-21T04:30:52;21.60;70.30
35363;DHT22;21463;47.480;8.214;2022-08-21T04:31:54;21.60;70.20
35363;DHT22;21463;47.480;8.214;2022-08-21T04:32:57;21.60;70.30
35363;DHT22;21463;47.480;8.214;2022-08-21T04:34:00;21.60;70.20
35363;DHT22;21463;47.480;8.214;2022-08-21T04:35:07;21.60;70.20
35363;DHT22;21463;47.480;8.214;2022-08-21T04:36:11;21.60;70.20
35363;DHT22;21463;47.480;8.214;2022-08-21T04:37:13;21.60;70.20
35363;DHT22;21463;47.480;8.214;2022-08-21T04:38:18;21.50;70.20
35363;DHT22;21463;47.480;8.214;2022-08-21T04:39:20;21.50;70.20
35363;DHT22;21463;47.480;8.214;2022-08-21T04:40:30;21.50;70.20
35363;DHT22;21463;47.480;8.214;2022-08-21T04:41:33;21.60;70.30
35363;DHT22;21463;47.480;8.214;2022-08-21T04:42:41;21.60;70.20
35363;DHT22;21463;47.480;8.214;2022-08-21T04:43:44;21.60;70.20
35363;DHT22;21463;47.480;8.214;2022-08-21T04:44:47;21.60;70.20
35363;DHT22;21463;47.480;8.214;2022-08-21T04:45:51;21.60;70.20
35363;DHT22;21463;47.480;8.214;2022-08-21T04:46:54;21.50;70.20
35363;DHT22;21463;47.480;8.214;2022-08-21T04:48:00;21.50;70.10
35363;DHT22;21463;47.480;8.214;2022-08-21T04:49:02;21.50;70.10
35363;DHT22;21463;47.480;8.214;2022-08-21T04:50:05;21.60;70.20
35363;DHT22;21463;47.480;8.214;2022-08-21T04:51:17;21.50;70.10
35363;DHT22;21463;47.480;8.214;2022-08-21T04:52:22;21.50;70.10
35363;DHT22;21463;47.480;8.214;2022-08-21T04:53:45;21.50;70.10
35363;DHT22;21463;47.480;8.214;2022-08-21T04:54:50;21.50;70.10
35363;DHT22;21463;47.480;8.214;2022-08-21T04:55:57;21.60;70.20
35363;DHT22;21463;47.480;8.214;2022-08-21T04:57:05;21.50;70.10
35363;DHT22;21463;47.480;8.214;2022-08-21T04:58:11;21.60;70.20
35363;DHT22;21463;47.480;8.214;2022-08-21T04:59:21;21.50;70.10
35363;DHT22;21463;47.480;8.214;2022-08-21T05:00:25;21.60;70.10
35363;DHT22;21463;47.480;8.214;2022-08-21T05:01:29;21.50;70.10
35363;DHT22;21463;47.480;8.214;2022-08-21T05:02:32;21.60;70.10
35363;DHT22;21463;47.480;8.214;2022-08-21T05:03:36;21.50;70.10
35363;DHT22;21463;47.480;8.214;2022-08-21T05:04:43;21.50;70.10
35363;DHT22;21463;47.480;8.214;2022-08-21T05:05:47;21.60;70.20
35363;DHT22;21463;47.480;8.214;2022-08-21T05:06:51;21.60;70.10
35363;DHT22;21463;47.480;8.214;2022-08-21T05:07:54;21.50;70.10
35363;DHT22;21463;47.480;8.214;2022-08-21T05:08:58;21.60;70.10
35363;DHT22;21463;47.480;8.214;2022-08-21T05:10:03;21.50;70.10
35363;DHT22;21463;47.480;8.214;2022-08-21T05:11:06;21.60;70.10
35363;DHT22;21463;47.480;8.214;2022-08-21T05:12:09;21.50;70.00
35363;DHT22;21463;47.480;8.214;2022-08-21T05:13:13;21.60;70.10
35363;DHT22;21463;47.480;8.214;2022-08-21T05:14:15;21.50;70.00
35363;DHT22;21463;47.480;8.214;2022-08-21T05:15:18;21.50;70.00
35363;DHT22;21463;47.480;8.214;2022-08-21T05:16:20;21.60;70.10
35363;DHT22;21463;47.480;8.214;2022-08-21T05:17:39;21.60;70.10
35363;DHT22;21463;47.480;8.214;2022-08-21T05:18:42;21.60;70.10
35363;DHT22;21463;47.480;8.214;2022-08-21T05:19:45;21.60;70.10
35363;DHT22;21463;47.480;8.214;2022-08-21T05:20:47;21.60;70.10
35363;DHT22;21463;47.480;8.214;2022-08-21T05:21:50;21.60;70.10
35363;DHT22;21463;47.480;8.214;2022-08-21T05:22:53;21.60;70.00
35363;DHT22;21463;47.480;8.214;2022-08-21T05:23:56;21.50;70.00
35363;DHT22;21463;47.480;8.214;2022-08-21T05:24:58;21.50;70.00
35363;DHT22;21463;47.480;8.214;2022-08-21T05:26:01;21.50;70.00
35363;DHT22;21463;47.480;8.214;2022-08-21T05:27:03;21.60;70.10
35363;DHT22;21463;47.480;8.214;2022-08-21T05:28:06;21.60;70.00
35363;DHT22;21463;47.480;8.214;2022-08-21T05:29:09;21.60;70.00
35363;DHT22;21463;47.480;8.214;2022-08-21T05:30:14;21.50;70.00
35363;DHT22;21463;47.480;8.214;2022-08-21T05:31:16;21.50;70.00
35363;DHT22;21463;47.480;8.214;2022-08-21T05:32:19;21.50;69.90
35363;DHT22;21463;47.480;8.214;2022-08-21T05:33:21;21.50;70.00
35363;DHT22;21463;47.480;8.214;2022-08-21T05:34:24;21.50;69.90
35363;DHT22;21463;47.480;8.214;2022-08-21T05:35:27;21.50;69.90
35363;DHT22;21463;47.480;8.214;2022-08-21T05:36:30;21.50;69.90
35363;DHT22;21463;47.480;8.214;2022-08-21T05:37:33;21.50;69.90
35363;DHT22;21463;47.480;8.214;2022-08-21T05:38:36;21.50;69.90
35363;DHT22;21463;47.480;8.214;2022-08-21T05:39:38;21.60;70.00
35363;DHT22;21463;47.480;8.214;2022-08-21T05:41:01;21.50;69.90
35363;DHT22;21463;47.480;8.214;2022-08-21T05:42:03;21.60;70.00
35363;DHT22;21463;47.480;8.214;2022-08-21T05:43:06;21.50;69.90
35363;DHT22;21463;47.480;8.214;2022-08-21T05:44:08;21.60;69.90
35363;DHT22;21463;47.480;8.214;2022-08-21T05:45:12;21.50;69.80
35363;DHT22;21463;47.480;8.214;2022-08-21T05:46:38;21.50;69.90
35363;DHT22;21463;47.480;8.214;2022-08-21T05:47:40;21.60;69.90
35363;DHT22;21463;47.480;8.214;2022-08-21T05:48:43;21.50;69.80
35363;DHT22;21463;47.480;8.214;2022-08-21T05:49:45;21.60;69.90
35363;DHT22;21463;47.480;8.214;2022-08-21T05:50:49;21.60;69.90
35363;DHT22;21463;47.480;8.214;2022-08-21T05:51:52;21.60;69.90
35363;DHT22;21463;47.480;8.214;2022-08-21T05:52:55;21.60;69.90
35363;DHT22;21463;47.480;8.214;2022-08-21T05:54:08;21.50;69.80
35363;DHT22;21463;47.480;8.214;2022-08-21T05:55:11;21.60;69.90
35363;DHT22;21463;47.480;8.214;2022-08-21T05:56:14;21.60;69.90
35363;DHT22;21463;47.480;8.214;2022-08-21T05:57:16;21.60;69.80
35363;DHT22;21463;47.480;8.214;2022-08-21T05:58:20;21.50;69.80
35363;DHT22;21463;47.480;8.214;2022-08-21T05:59:23;21.60;69.80
35363;DHT22;21463;47.480;8.214;2022-08-21T06:00:25;21.50;69.80
35363;DHT22;21463;47.480;8.214;2022-08-21T06:01:28;21.50;69.80
35363;DHT22;21463;47.480;8.214;2022-08-21T06:02:32;21.50;69.80
35363;DHT22;21463;47.480;8.214;2022-08-21T06:03:38;21.50;69.80
35363;DHT22;21463;47.480;8.214;2022-08-21T06:04:41;21.60;69.80
35363;DHT22;21463;47.480;8.214;2022-08-21T06:05:43;21.60;69.80
35363;DHT22;21463;47.480;8.214;2022-08-21T06:06:46;21.50;69.80
35363;DHT22;21463;47.480;8.214;2022-08-21T06:07:49;21.60;69.80
35363;DHT22;21463;47.480;8.214;2022-08-21T06:08:52;21.60;69.80
35363;DHT22;21463;47.480;8.214;2022-08-21T06:09:55;21.50;69.70
35363;DHT22;21463;47.480;8.214;2022-08-21T06:10:59;21.50;69.70
35363;DHT22;21463;47.480;8.214;2022-08-21T06:12:07;21.60;69.70
35363;DHT22;21463;47.480;8.214;2022-08-21T06:13:11;21.60;69.80
35363;DHT22;21463;47.480;8.214;2022-08-21T06:14:14;21.50;69.70
35363;DHT22;21463;47.480;8.214;2022-08-21T06:15:17;21.50;69.70
35363;DHT22;21463;47.480;8.214;2022-08-21T06:16:19;21.50;69.70
35363;DHT22;21463;47.480;8.214;2022-08-21T06:17:22;21.50;69.70
35363;DHT22;21463;47.480;8.214;2022-08-21T06:18:25;21.60;69.70
35363;DHT22;21463;47.480;8.214;2022-08-21T06:19:27;21.60;69.70
35363;DHT22;21463;47.480;8.214;2022-08-21T06:20:30;21.60;69.70
35363;DHT22;21463;47.480;8.214;2022-08-21T06:21:33;21.60;69.70
35363;DHT22;21463;47.480;8.214;2022-08-21T06:22:36;21.60;69.70
35363;DHT22;21463;47.480;8.214;2022-08-21T06:23:38;21.50;69.60
35363;DHT22;21463;47.480;8.214;2022-08-21T06:24:41;21.60;69.70
35363;DHT22;21463;47.480;8.214;2022-08-21T06:25:44;21.60;69.70
35363;DHT22;21463;47.480;8.214;2022-08-21T06:26:47;21.50;69.70
35363;DHT22;21463;47.480;8.214;2022-08-21T06:27:49;21.60;69.70
35363;DHT22;21463;47.480;8.214;2022-08-21T06:28:52;21.60;69.70
35363;DHT22;21463;47.480;8.214;2022-08-21T06:29:55;21.50;69.60
35363;DHT22;21463;47.480;8.214;2022-08-21T06:30:59;21.60;69.70
35363;DHT22;21463;47.480;8.214;2022-08-21T06:32:03;21.60;69.70
35363;DHT22;21463;47.480;8.214;2022-08-21T06:33:06;21.50;69.60
35363;DHT22;21463;47.480;8.214;2022-08-21T06:34:09;21.50;69.60
35363;DHT22;21463;47.480;8.214;2022-08-21T06:35:14;21.50;69.60
35363;DHT22;21463;47.480;8.214;2022-08-21T06:36:18;21.60;69.70
35363;DHT22;21463;47.480;8.214;2022-08-21T06:37:21;21.60;69.70
35363;DHT22;21463;47.480;8.214;2022-08-21T06:38:24;21.50;69.60
35363;DHT22;21463;47.480;8.214;2022-08-21T06:39:27;21.60;69.70
35363;DHT22;21463;47.480;8.214;2022-08-21T06:40:33;21.50;69.60
35363;DHT22;21463;47.480;8.214;2022-08-21T06:41:40;21.60;69.70
35363;DHT22;21463;47.480;8.214;2022-08-21T06:42:43;21.60;69.70
35363;DHT22;21463;47.480;8.214;2022-08-21T06:43:48;21.50;69.60
35363;DHT22;21463;47.480;8.214;2022-08-21T06:44:51;21.50;69.60